Address 0xe55b2caa578daf4abf3c948927ace526a739c442

 
Txn Hash
Block
From
To
Value [Txn Fee]
0x9a1c599869d402daa4183f80c75ebf82daf5c7922bbaae43cdd41489626da36a82282972021-06-12 8:40:121 day 1 hr ago0xe55b2caa578daf4abf3c948927ace526a739c442OUT 0x6884ae24deb7e8fa80dc9d0d56c91d78a250e9b10 BNB0.00098625
0xd8fbf617e6d15ae8844a24e31068f1f7558bba38ec4f3ce92ac079b74b805d1081978482021-06-11 7:12:392 days 3 hrs ago0xe55b2caa578daf4abf3c948927ace526a739c442OUT PancakeSwap: Router v20.01 BNB0.00096612
0x53fa6c993343e2d2be732649a9d496454b170a02e9b92fdc17b32d4930d1ec7881971862021-06-11 6:39:232 days 3 hrs ago0xe55b2caa578daf4abf3c948927ace526a739c442OUT PancakeSwap: Router v20.018 BNB0.001299845
0x8aebe6bd4cb84b6395acd151cf82b6330f9074c19ecf30309fc155f76b76759a81923902021-06-11 2:39:192 days 7 hrs ago0xe55b2caa578daf4abf3c948927ace526a739c442OUT PancakeSwap: Router v20.005 BNB0.00176368
0x06445bab06a1654afb834cfaa81de58cf5dc817c2af62e83d958f0762c2520c081923202021-06-11 2:35:492 days 7 hrs ago0xe55b2caa578daf4abf3c948927ace526a739c442OUT PancakeSwap: Router v20.08 BNB0.00130848
0x01c1ecf2d81204526f8124054e23eb6cc34c6320aa8a26fc9867076855f6d4fb81843312021-06-10 19:55:392 days 14 hrs ago0xe55b2caa578daf4abf3c948927ace526a739c442OUT PancakeSwap: Router v20 BNB0.00466676
0x98ff1bd384e3aaffee80ecefd7994359150cee13dff178194aa2878ced5747d981843192021-06-10 19:55:032 days 14 hrs ago0xe55b2caa578daf4abf3c948927ace526a739c442OUT 0x66696ab8c6aaeb22dc14a2dc4a833682388ea9010 BNB0.00022226
0xcb71fab11a6c9ec7d10ddc4fa57011938822cec689c0c4cebef61ea47986d44c81843122021-06-10 19:54:422 days 14 hrs ago0xe55b2caa578daf4abf3c948927ace526a739c442OUT PancakeSwap: Router v20 BNB0.00153288
0xa9b452a6533d49ad0e6ee38d01ef7c94ae06886d86b76bb84ba4c14a777207b281843042021-06-10 19:54:182 days 14 hrs ago0xe55b2caa578daf4abf3c948927ace526a739c442OUT 0xf8cbf2c40b641449d29e97a03c76b7d15bc7415e0 BNB0.00022681
0x50402df70a3cc53586749473b35d3e68da64fc740ee0e8132fa29c0384c3b98281801872021-06-10 16:26:482 days 17 hrs ago0xe55b2caa578daf4abf3c948927ace526a739c442OUT PancakeSwap: Router v20.01 BNB0.00191437
0x2e7ea747563a8ac2f213c8e8df53b3c1c86d2c54c0abe9e7c75ab3742b5adba281767912021-06-10 13:34:192 days 20 hrs ago0xe55b2caa578daf4abf3c948927ace526a739c442OUT PancakeSwap: Router v20.01 BNB0.00067917
0xfcc1c539d047bd504b02d243fb3ecfa0dde5f6f577c4c4347cd9d0b6fb75281981763292021-06-10 13:11:132 days 21 hrs ago0xe55b2caa578daf4abf3c948927ace526a739c442OUT PancakeSwap: Router v20.01 BNB0.00138348
0x3fb7480f4ec60eea444a67884619c5ae9ea386d023a02d5e1cf5a517eec5b2ab81741952021-06-10 11:24:292 days 22 hrs ago0xe55b2caa578daf4abf3c948927ace526a739c442OUT PancakeSwap: Router v20.01 BNB0.001724245
0xb759f49743eedd0935fccd2be6948edabc8d44eeae8e6a9d08a2d6ace783ae6a81737012021-06-10 10:59:472 days 23 hrs ago0xe55b2caa578daf4abf3c948927ace526a739c442OUT PancakeSwap: Router v20 BNB0.003714085
0x45b55d683b98d0567f3729822aa51a8fda68b9b13d12abe9d767f751d52daa6881736302021-06-10 10:56:142 days 23 hrs ago0xe55b2caa578daf4abf3c948927ace526a739c442OUT PancakeSwap: Router v20 BNB0.00266374
0xc1c45a22a06aca74bc6624f8a3b61a18f7305bdd26e36d41750b766d37ab7ab481736092021-06-10 10:55:112 days 23 hrs ago0xe55b2caa578daf4abf3c948927ace526a739c442OUT 0x0952ddffde60786497c7ced1f49b4a14cf527f760 BNB0.000225805
0x1a100dd9a9c65c1aa5dbb377cf67e25b92e448b5bc004dadeb463cfd44d3433981736022021-06-10 10:54:502 days 23 hrs ago0xe55b2caa578daf4abf3c948927ace526a739c442OUT PancakeSwap: Router v20 BNB0.00208776
0x45d72d7e9c480124aca7fafdc92d1c88ae309753fe562789f37fa77e8532063c81735922021-06-10 10:54:202 days 23 hrs ago0xe55b2caa578daf4abf3c948927ace526a739c442OUT 0xe5d46cc0fd592804b36f9dc6d2ed7d4d149ebd6f0 BNB0.00022274
0x6de37734d1f653fbefa78eb7e62fb9c9f93f03d9663e491de714829c3600147381724312021-06-10 9:56:173 days 21 mins ago0xe55b2caa578daf4abf3c948927ace526a739c442OUT PancakeSwap: Router v20 BNB0.00453119
0x78588e2e4c8931c6b8cadff8b41fca807960bb6aaa5ce80f0c8e85f65f52949d81723752021-06-10 9:53:293 days 24 mins ago0xe55b2caa578daf4abf3c948927ace526a739c442OUT 0x3b8674f9cd879e0f557b3df9700d9b639a2eea170 BNB0.00022263
0x681e1d64a990fc1cc2c33357d3f219005b0418533a57c23d98a042dc2d051a6781713462021-06-10 9:02:023 days 1 hr ago0xe55b2caa578daf4abf3c948927ace526a739c442OUT PancakeSwap: Router v20.01 BNB0.0024423
0x079ada21c8b89047f5612c84464a727974571b2043e9a62ca902571934d61d5981708962021-06-10 8:39:133 days 1 hr ago0xe55b2caa578daf4abf3c948927ace526a739c442OUT PancakeSwap: Router v20.01 BNB0.00176368
0xa3aedaa58f0131ec1c1a4f1b9a7b746b9424cd9b0320499941067cb3f859632381708322021-06-10 8:36:013 days 1 hr ago0xe55b2caa578daf4abf3c948927ace526a739c442OUT PancakeSwap: Router v20.005 BNB0.00082142
0xc7de0c80d42de3b10002614409d948bb36e4200824c568d0abc998277698d60381703262021-06-10 8:10:433 days 2 hrs ago0xe55b2caa578daf4abf3c948927ace526a739c442OUT PancakeSwap: Router v20.01 BNB0.000978565
0x05211c3394adda1f77673c3ccfa86d5af7374d44c0ca94b2f21e6940ac737c4481694892021-06-10 7:28:523 days 2 hrs ago0xe55b2caa578daf4abf3c948927ace526a739c442OUT PancakeSwap: Router v20.01 BNB0.00089642
[ Download CSV Export 
Latest 5 internal transactions
Parent Txn Hash Block From To Value
0x9a1c599869d402daa4183f80c75ebf82daf5c7922bbaae43cdd41489626da36a82282972021-06-12 8:40:121 day 1 hr ago 0x6884ae24deb7e8fa80dc9d0d56c91d78a250e9b10xe55b2caa578daf4abf3c948927ace526a739c4420.000134430831142804 BNB
0x1a100dd9a9c65c1aa5dbb377cf67e25b92e448b5bc004dadeb463cfd44d3433981736022021-06-10 10:54:502 days 23 hrs ago PancakeSwap: Router v20xe55b2caa578daf4abf3c948927ace526a739c4420.008138204027571569 BNB
0xe1c04372c8be7b4add9ed842c3719e5024bc29698596fe0ad9d13f38cc5b249b74866192021-05-17 11:29:3426 days 22 hrs ago PancakeSwap: Router v20xe55b2caa578daf4abf3c948927ace526a739c4420.334951047269622853 BNB
0x4489c292675718d35eb863e78990826b7db694c7de64090af5228d5666a30b9874647892021-05-16 17:07:2527 days 17 hrs ago PancakeSwap: Router v20xe55b2caa578daf4abf3c948927ace526a739c4421 wei
0xbc68f2cc73089e48dd23d117de795da63f736bc49e8cd914015fd2e8f87a3d3b74639332021-05-16 16:23:1927 days 17 hrs ago PancakeSwap: Router v20xe55b2caa578daf4abf3c948927ace526a739c4420.000000323304935321 BNB
[ Download CSV Export 
Loading

Contract Name:
0 BNB

Compiler Version
0

Optimization Enabled:
0 BNB

Other Settings:
-NA-
Block Transaction Gas Used Reward
Age Block Fee Address BC Fee Address Voting Power Jailed Incoming
Block Uncle Number Difficulty Gas Used Reward
Loading
Loading
Make sure to use the "Vote Down" button for any spammy posts, and the "Vote Up" for interesting conversations.